Time;durP1;ratioP1;P1;durP2;ratioP2;P2;SDS_P1;SDS_P2;PMS_P1;PMS_P2;Temp;Humidity;BMP_temperature;BMP_pressure;BME280_temperature;BME280_humidity;BME280_pressure;Samples;Min_cycle;Max_cycle;Signal;HPM_P1;HPM_P2
2023/01/08 00:01:22;;;;;;;6.00;4.00;;;11.30;99.90;;;;;;5096762;28;20635;-68
2023/01/08 00:03:48;;;;;;;6.60;3.23;;;11.30;99.90;;;;;;5096446;28;20255;-69
2023/01/08 00:06:17;;;;;;;7.23;3.67;;;11.30;99.90;;;;;;5096518;28;20194;-69
2023/01/08 00:08:43;;;;;;;7.00;3.57;;;11.30;99.90;;;;;;5096078;28;20190;-69
2023/01/08 00:11:09;;;;;;;3.87;3.53;;;11.30;99.90;;;;;;5096298;28;20172;-69
2023/01/08 00:13:35;;;;;;;3.00;1.87;;;11.30;99.90;;;;;;5096299;28;20249;-69
2023/01/08 00:16:09;;;;;;;2.77;1.13;;;10.90;99.90;;;;;;5096268;28;20240;-70
2023/01/08 00:18:35;;;;;;;3.70;1.10;;;10.30;99.90;;;;;;5096308;28;20191;-71
2023/01/08 00:21:01;;;;;;;3.47;1.20;;;10.00;99.90;;;;;;5096230;28;20176;-70
2023/01/08 00:23:27;;;;;;;3.90;0.77;;;9.60;99.90;;;;;;5094733;28;20172;-70
2023/01/08 00:25:52;;;;;;;1.63;1.10;;;9.40;99.90;;;;;;5094677;28;20686;-71
2023/01/08 00:28:19;;;;;;;4.37;1.30;;;9.20;99.90;;;;;;5096057;28;20175;-70
2023/01/08 00:30:46;;;;;;;4.63;1.17;;;9.00;99.90;;;;;;5096002;28;20175;-70
2023/01/08 00:33:12;;;;;;;4.03;1.20;;;9.00;99.90;;;;;;5095829;28;20212;-70
2023/01/08 00:35:38;;;;;;;3.67;1.10;;;8.90;99.90;;;;;;5095932;28;20187;-71
2023/01/08 00:38:04;;;;;;;2.60;1.00;;;8.80;99.90;;;;;;5095586;28;20251;-71
2023/01/08 00:40:31;;;;;;;3.27;1.10;;;8.80;99.90;;;;;;5095876;28;20260;-70
2023/01/08 00:42:57;;;;;;;2.50;1.00;;;8.70;99.90;;;;;;5095635;28;20242;-70
2023/01/08 00:45:22;;;;;;;2.33;1.10;;;8.70;99.90;;;;;;5095625;28;20646;-70
2023/01/08 00:47:48;;;;;;;4.03;1.47;;;8.70;99.90;;;;;;5095515;28;20266;-71
2023/01/08 00:50:13;;;;;;;2.60;1.40;;;8.70;99.90;;;;;;5095620;28;20168;-71
2023/01/08 00:52:39;;;;;;;2.93;1.10;;;8.70;99.90;;;;;;5095167;28;20219;-70
2023/01/08 00:55:05;;;;;;;5.67;1.20;;;8.70;99.90;;;;;;5095511;28;20171;-70
2023/01/08 00:57:35;;;;;;;2.77;1.20;;;8.70;99.90;;;;;;5095201;28;20207;-69
2023/01/08 01:00:01;;;;;;;3.63;1.20;;;8.70;99.90;;;;;;5095458;28;20172;-70
2023/01/08 01:02:27;;;;;;;4.50;1.60;;;8.70;99.90;;;;;;5095358;28;20171;-70
2023/01/08 01:04:53;;;;;;;6.00;1.53;;;8.70;99.90;;;;;;5095289;28;20172;-70
2023/01/08 01:07:19;;;;;;;1.93;1.50;;;8.70;99.90;;;;;;5093734;28;20172;-68
2023/01/08 01:09:44;;;;;;;3.20;1.60;;;8.80;99.90;;;;;;5095308;28;20213;-68
2023/01/08 01:12:10;;;;;;;3.03;1.17;;;8.80;99.90;;;;;;5095138;28;20212;-69
2023/01/08 01:14:38;;;;;;;4.77;1.50;;;8.90;99.90;;;;;;5095246;28;20192;-69
2023/01/08 01:17:04;;;;;;;2.77;1.47;;;8.90;99.90;;;;;;5095280;28;20194;-69
2023/01/08 01:19:29;;;;;;;3.90;1.10;;;8.90;99.90;;;;;;5094987;28;20631;-69
2023/01/08 01:21:55;;;;;;;3.37;1.50;;;8.90;99.90;;;;;;5094704;28;20174;-69
2023/01/08 01:24:23;;;;;;;2.83;1.30;;;8.90;99.90;;;;;;5094924;28;20171;-70
2023/01/08 01:26:55;;;;;;;3.70;1.40;;;8.90;99.90;;;;;;5094941;28;20167;-69
2023/01/08 01:29:21;;;;;;;1.27;1.17;;;9.00;99.90;;;;;;5094944;28;20571;-68
2023/01/08 01:31:46;;;;;;;3.20;1.30;;;9.00;99.90;;;;;;5094566;28;20235;-69
2023/01/08 01:34:12;;;;;;;5.57;1.20;;;9.00;99.90;;;;;;5093336;28;20218;-69
2023/01/08 01:36:37;;;;;;;2.93;1.30;;;9.00;99.90;;;;;;5094539;28;20534;-68
2023/01/08 01:39:04;;;;;;;2.80;1.37;;;9.00;99.90;;;;;;5094608;28;20179;-67
2023/01/08 01:41:37;;;;;;;2.30;1.33;;;9.00;99.90;;;;;;5094569;28;20164;-69
2023/01/08 01:44:38;;;;;;;3.00;1.50;;;9.10;99.90;;;;;;5093985;28;20243;-69
2023/01/08 01:47:09;;;;;;;2.37;1.30;;;9.20;99.90;;;;;;5094607;28;20172;-68
2023/01/08 01:49:37;;;;;;;3.40;1.80;;;9.20;99.90;;;;;;5094467;28;20187;-69
2023/01/08 01:52:06;;;;;;;2.77;1.80;;;9.30;99.90;;;;;;5093964;28;20192;-68
2023/01/08 01:54:34;;;;;;;2.50;1.80;;;9.30;99.90;;;;;;5094318;28;20251;-69
2023/01/08 01:57:00;;;;;;;4.10;1.90;;;9.40;99.90;;;;;;5094340;28;20224;-69
2023/01/08 01:59:26;;;;;;;5.23;2.13;;;9.40;99.90;;;;;;5094373;28;20703;-68
2023/01/08 02:01:52;;;;;;;4.47;2.20;;;9.40;99.90;;;;;;5094206;28;20176;-67
2023/01/08 02:04:17;;;;;;;3.30;1.90;;;9.40;99.90;;;;;;5093760;28;20172;-68
2023/01/08 02:07:07;;;;;;;3.13;1.73;;;9.50;99.90;;;;;;5094157;28;20164;-69
2023/01/08 02:09:50;;;;;;;5.63;2.23;;;9.40;99.90;;;;;;5094129;28;20161;-69
2023/01/08 02:12:24;;;;;;;5.90;2.20;;;9.50;99.90;;;;;;5094075;28;20199;-68
2023/01/08 02:15:18;;;;;;;5.00;1.80;;;9.40;99.90;;;;;;5093925;28;20199;-68
2023/01/08 02:18:34;;;;;;;6.93;2.20;;;9.50;99.90;;;;;;5094186;28;20226;-69
2023/01/08 02:21:07;;;;;;;10.07;2.70;;;9.50;99.90;;;;;;5011668;28;20182;-69
2023/01/08 02:23:52;;;;;;;6.53;2.40;;;9.60;99.90;;;;;;5011861;28;20661;-68
2023/01/08 02:26:28;;;;;;;6.60;2.40;;;9.60;99.90;;;;;;5064370;28;20187;-69
2023/01/08 02:29:07;;;;;;;4.93;2.33;;;9.60;99.90;;;;;;5094022;28;20179;-69
2023/01/08 02:31:35;;;;;;;5.77;2.70;;;9.70;99.90;;;;;;5093853;28;20261;-69
2023/01/08 02:34:00;;;;;;;6.13;3.10;;;9.70;99.90;;;;;;5093172;28;20176;-69
2023/01/08 02:36:32;;;;;;;4.37;2.57;;;9.80;99.90;;;;;;5092386;28;20208;-68
2023/01/08 02:39:10;;;;;;;6.53;3.13;;;9.80;99.90;;;;;;5092508;28;20340;-69
2023/01/08 02:42:14;;;;;;;6.67;3.10;;;9.80;99.90;;;;;;5093644;28;20167;-68
2023/01/08 02:44:54;;;;;;;3.73;2.50;;;9.70;99.90;;;;;;5092862;28;20662;-69
2023/01/08 02:47:45;;;;;;;2.93;1.80;;;9.60;99.90;;;;;;5092913;28;20518;-69
2023/01/08 02:50:40;;;;;;;4.93;2.23;;;9.50;99.90;;;;;;5093531;28;20262;-68
2023/01/08 02:53:13;;;;;;;1.93;1.63;;;9.50;99.90;;;;;;5093460;28;20211;-68
2023/01/08 02:55:42;;;;;;;2.23;1.47;;;9.40;99.90;;;;;;5093540;28;20537;-68
2023/01/08 02:58:09;;;;;;;3.90;1.70;;;9.40;99.90;;;;;;5093427;28;20627;-69
2023/01/08 03:00:36;;;;;;;3.70;2.20;;;9.40;99.90;;;;;;5093542;28;20168;-69
2023/01/08 03:03:20;;;;;;;3.37;2.20;;;9.50;99.90;;;;;;5093099;28;20270;-69
2023/01/08 03:05:51;;;;;;;3.47;2.13;;;9.50;99.90;;;;;;5093441;28;20172;-69
2023/01/08 03:08:17;;;;;;;3.53;1.80;;;9.50;99.90;;;;;;5093262;28;20646;-69
2023/01/08 03:10:48;;;;;;;5.27;1.90;;;9.50;99.90;;;;;;5093592;28;20176;-69
2023/01/08 03:13:29;;;;;;;6.27;1.80;;;9.50;99.90;;;;;;5093053;28;20203;-69
2023/01/08 03:15:58;;;;;;;2.40;1.80;;;9.50;99.90;;;;;;5093184;28;20183;-69
2023/01/08 03:18:33;;;;;;;3.17;1.90;;;9.60;99.90;;;;;;5092761;28;20174;-68
2023/01/08 03:21:00;;;;;;;2.70;2.03;;;9.60;99.90;;;;;;5091916;28;20163;-69
2023/01/08 03:23:27;;;;;;;3.47;2.00;;;9.60;99.90;;;;;;5093277;28;20172;-68
2023/01/08 03:25:53;;;;;;;1.50;1.40;;;9.60;99.90;;;;;;5091947;28;20701;-69
2023/01/08 03:28:29;;;;;;;2.47;1.50;;;9.60;99.90;;;;;;5093019;28;20171;-69
2023/01/08 03:30:55;;;;;;;1.83;1.60;;;9.60;99.90;;;;;;5093191;28;20175;-69
2023/01/08 03:33:23;;;;;;;2.67;1.30;;;9.60;99.90;;;;;;5092719;28;20203;-68
2023/01/08 03:35:52;;;;;;;5.03;1.50;;;9.60;99.90;;;;;;5093017;28;20200;-68
2023/01/08 03:38:25;;;;;;;3.30;1.30;;;9.50;99.90;;;;;;5093252;28;20168;-69
2023/01/08 03:40:56;;;;;;;5.13;1.57;;;9.50;99.90;;;;;;5093076;28;20168;-68
2023/01/08 03:43:22;;;;;;;3.23;1.30;;;9.50;99.90;;;;;;5091455;28;20302;-68
2023/01/08 03:45:55;;;;;;;4.93;1.33;;;9.30;99.90;;;;;;5092583;28;20674;-68
2023/01/08 03:48:22;;;;;;;1.83;1.57;;;9.30;99.90;;;;;;5092987;28;20244;-70
2023/01/08 03:50:48;;;;;;;5.73;1.10;;;9.20;99.90;;;;;;5093089;28;20248;-68
2023/01/08 03:53:14;;;;;;;7.97;1.40;;;9.20;99.90;;;;;;5092773;28;20736;-69
2023/01/08 03:55:40;;;;;;;5.07;1.30;;;9.20;99.90;;;;;;5092812;28;20168;-68
2023/01/08 03:58:05;;;;;;;6.87;1.50;;;9.30;99.90;;;;;;5093995;28;20160;-68
2023/01/08 04:00:31;;;;;;;3.97;1.27;;;9.30;99.90;;;;;;5096405;28;20186;-68
2023/01/08 04:02:57;;;;;;;4.70;1.40;;;9.30;99.90;;;;;;5096794;28;20221;-68
2023/01/08 04:05:22;;;;;;;4.23;1.43;;;9.40;99.90;;;;;;5096547;28;20623;-67
2023/01/08 04:07:48;;;;;;;8.17;2.03;;;9.40;99.90;;;;;;5096474;28;20172;-68
2023/01/08 04:10:13;;;;;;;5.97;1.67;;;9.30;99.90;;;;;;5096405;28;20160;-68
2023/01/08 04:12:42;;;;;;;7.20;1.53;;;9.30;99.90;;;;;;5095149;28;20210;-67
2023/01/08 04:15:07;;;;;;;7.10;2.30;;;9.30;99.90;;;;;;5095771;28;20241;-68
2023/01/08 04:17:33;;;;;;;6.33;2.03;;;9.20;99.90;;;;;;5096144;28;20639;-68
2023/01/08 04:19:59;;;;;;;6.63;1.73;;;9.20;99.90;;;;;;5096180;28;20164;-69
2023/01/08 04:22:24;;;;;;;5.70;1.73;;;9.20;99.90;;;;;;5095984;28;20647;-67
2023/01/08 04:24:50;;;;;;;4.00;2.07;;;9.20;99.90;;;;;;5095952;28;20163;-68
2023/01/08 04:27:15;;;;;;;6.43;1.60;;;9.20;99.90;;;;;;5096169;28;20183;-69
2023/01/08 04:29:41;;;;;;;8.13;1.90;;;9.10;99.90;;;;;;5095528;28;20650;-68
2023/01/08 04:32:07;;;;;;;7.73;2.10;;;9.10;99.90;;;;;;5095617;28;20215;-69
2023/01/08 04:34:32;;;;;;;6.00;1.40;;;9.10;99.90;;;;;;5095757;28;20547;-69
2023/01/08 04:36:58;;;;;;;5.40;1.80;;;9.00;99.90;;;;;;5095844;28;20187;-69
2023/01/08 04:39:24;;;;;;;8.57;1.70;;;8.90;99.90;;;;;;5095728;28;20644;-69
2023/01/08 04:41:49;;;;;;;6.57;1.80;;;8.80;99.90;;;;;;5095693;28;20700;-70
2023/01/08 04:44:15;;;;;;;11.10;1.90;;;8.70;99.90;;;;;;5094637;28;20691;-70
2023/01/08 04:46:40;;;;;;;6.60;1.97;;;8.60;99.90;;;;;;5095669;28;20221;-70
2023/01/08 04:49:06;;;;;;;7.20;2.00;;;8.60;99.90;;;;;;5095405;28;20635;-68
2023/01/08 04:51:32;;;;;;;13.47;1.97;;;8.60;99.90;;;;;;5095153;28;20199;-69
2023/01/08 04:53:57;;;;;;;7.80;2.03;;;8.50;99.90;;;;;;5095353;28;20176;-69
2023/01/08 04:56:23;;;;;;;8.27;2.03;;;8.40;99.90;;;;;;5095514;28;20182;-69
2023/01/08 04:58:48;;;;;;;9.37;2.00;;;8.40;99.90;;;;;;5095241;28;20704;-69
2023/01/08 05:01:25;;;;;;;7.20;2.20;;;8.40;99.90;;;;;;5095419;28;20175;-68
2023/01/08 05:03:56;;;;;;;7.67;1.80;;;8.40;99.90;;;;;;5094914;28;20179;-69
2023/01/08 05:06:23;;;;;;;5.80;1.77;;;8.40;99.90;;;;;;5095141;28;20172;-68
2023/01/08 05:08:48;;;;;;;10.80;1.93;;;8.40;99.90;;;;;;5095123;28;20187;-69
2023/01/08 05:11:14;;;;;;;8.47;2.07;;;8.40;99.90;;;;;;5094326;28;20160;-69
2023/01/08 05:13:40;;;;;;;10.47;2.17;;;8.30;99.90;;;;;;5094522;28;20196;-68
2023/01/08 05:16:06;;;;;;;9.90;1.93;;;8.30;99.90;;;;;;5094835;28;20171;-68
2023/01/08 05:18:32;;;;;;;6.90;1.80;;;8.30;99.90;;;;;;5094740;28;20182;-68
2023/01/08 05:21:02;;;;;;;10.30;1.70;;;8.30;99.90;;;;;;5093450;28;20172;-68
2023/01/08 05:23:28;;;;;;;13.90;2.50;;;8.30;99.90;;;;;;5094805;28;20255;-67
2023/01/08 05:25:59;;;;;;;9.27;2.10;;;8.30;99.90;;;;;;5093945;28;20183;-69
2023/01/08 05:28:25;;;;;;;8.37;1.90;;;8.20;99.90;;;;;;5093059;28;20562;-68
2023/01/08 05:30:50;;;;;;;10.70;2.10;;;8.20;99.90;;;;;;5094760;28;20182;-68
2023/01/08 05:33:16;;;;;;;8.90;1.90;;;8.20;99.90;;;;;;5094774;28;20207;-68
2023/01/08 05:35:41;;;;;;;4.87;1.77;;;8.20;99.90;;;;;;5094618;28;20628;-68
2023/01/08 05:38:07;;;;;;;4.17;1.50;;;8.20;99.90;;;;;;5094538;28;20210;-68
2023/01/08 05:40:33;;;;;;;5.10;1.63;;;8.20;99.90;;;;;;5094527;28;20620;-69
2023/01/08 05:42:59;;;;;;;7.23;1.63;;;8.20;99.90;;;;;;5093500;28;20692;-69
2023/01/08 05:45:25;;;;;;;4.47;1.60;;;8.20;99.90;;;;;;5092646;28;20510;-69
2023/01/08 05:47:50;;;;;;;11.10;2.33;;;8.20;99.90;;;;;;5094215;28;20187;-68
2023/01/08 05:50:16;;;;;;;8.47;1.73;;;8.20;99.90;;;;;;5094321;28;20179;-68
2023/01/08 05:52:41;;;;;;;7.43;1.80;;;8.20;99.90;;;;;;5094622;28;20211;-68
2023/01/08 05:55:08;;;;;;;8.63;1.83;;;8.20;99.90;;;;;;5094296;28;20232;-69
2023/01/08 05:57:33;;;;;;;7.93;1.83;;;8.20;99.90;;;;;;5093802;28;20184;-68
2023/01/08 05:59:59;;;;;;;5.10;1.70;;;8.20;99.90;;;;;;5094212;28;20205;-68
2023/01/08 06:02:24;;;;;;;11.87;1.80;;;8.20;99.90;;;;;;5094204;28;20555;-68
2023/01/08 06:04:50;;;;;;;6.07;1.63;;;8.20;99.90;;;;;;5094027;28;20167;-68
2023/01/08 06:07:15;;;;;;;6.93;1.90;;;8.20;99.90;;;;;;5094276;28;20175;-68
2023/01/08 06:09:41;;;;;;;5.30;1.67;;;8.10;99.90;;;;;;5094104;28;20172;-68
2023/01/08 06:12:07;;;;;;;8.33;2.20;;;8.10;99.90;;;;;;5093622;28;20196;-69
2023/01/08 06:14:32;;;;;;;6.20;1.60;;;8.20;99.90;;;;;;5093646;28;20589;-69
2023/01/08 06:16:58;;;;;;;8.23;2.00;;;8.20;99.90;;;;;;5093646;28;20168;-68
2023/01/08 06:19:23;;;;;;;7.20;1.60;;;8.20;99.90;;;;;;5093847;28;20167;-69
2023/01/08 06:21:49;;;;;;;8.30;1.77;;;8.20;99.90;;;;;;5092879;28;20631;-69
2023/01/08 06:24:15;;;;;;;4.67;1.80;;;8.20;99.90;;;;;;5093697;28;20172;-68
2023/01/08 06:26:40;;;;;;;9.83;2.10;;;8.20;99.90;;;;;;5093521;28;20180;-70
2023/01/08 06:29:06;;;;;;;4.77;1.80;;;8.20;99.90;;;;;;5093516;28;20636;-69
2023/01/08 06:31:32;;;;;;;9.03;1.90;;;8.20;99.90;;;;;;5093201;28;20197;-69
2023/01/08 06:33:57;;;;;;;8.17;2.17;;;8.30;99.90;;;;;;5093626;28;20256;-68
2023/01/08 06:36:23;;;;;;;8.83;2.60;;;8.30;99.90;;;;;;5093440;28;20178;-69
2023/01/08 06:38:48;;;;;;;8.77;2.30;;;8.30;99.90;;;;;;5093681;28;20176;-69
2023/01/08 06:41:14;;;;;;;7.87;1.90;;;8.30;99.90;;;;;;5093182;28;20592;-68
2023/01/08 06:43:39;;;;;;;8.77;2.33;;;8.30;99.90;;;;;;5092852;28;20231;-69
2023/01/08 06:46:07;;;;;;;8.50;2.10;;;8.20;99.90;;;;;;5091321;28;20584;-69
2023/01/08 06:48:33;;;;;;;8.97;2.13;;;8.20;99.90;;;;;;5093150;28;20180;-70
2023/01/08 06:51:00;;;;;;;8.37;2.13;;;8.30;99.90;;;;;;5093136;28;20175;-69
2023/01/08 06:53:25;;;;;;;11.73;2.47;;;8.40;99.90;;;;;;5093105;28;20207;-69
2023/01/08 06:55:55;;;;;;;5.70;2.00;;;8.40;99.90;;;;;;5092890;28;20689;-69
2023/01/08 06:58:22;;;;;;;7.93;1.87;;;8.40;99.90;;;;;;5093020;28;20164;-70
2023/01/08 07:00:48;;;;;;;7.80;1.87;;;8.40;99.90;;;;;;5091944;28;20216;-69
2023/01/08 07:03:13;;;;;;;9.47;2.07;;;8.50;99.90;;;;;;5093087;28;20266;-70
2023/01/08 07:05:39;;;;;;;10.83;2.40;;;8.50;99.90;;;;;;5093168;28;20176;-70
2023/01/08 07:08:04;;;;;;;8.63;2.13;;;8.50;99.90;;;;;;5093428;28;20709;-70
2023/01/08 07:10:30;;;;;;;6.30;2.00;;;8.50;99.90;;;;;;5092953;28;20692;-69
2023/01/08 07:12:56;;;;;;;8.20;2.13;;;8.50;99.90;;;;;;5092645;28;20249;-69
2023/01/08 07:15:22;;;;;;;10.73;2.33;;;8.50;99.90;;;;;;5092778;28;20179;-69
2023/01/08 07:17:48;;;;;;;10.30;2.37;;;8.60;99.90;;;;;;5093111;28;20677;-69
2023/01/08 07:20:13;;;;;;;10.97;2.17;;;8.60;99.90;;;;;;5091620;28;20172;-70
2023/01/08 07:22:39;;;;;;;8.40;2.57;;;8.60;99.90;;;;;;5092974;28;20179;-70
2023/01/08 07:25:06;;;;;;;7.83;2.10;;;8.60;99.90;;;;;;5092567;28;20171;-70
2023/01/08 07:27:31;;;;;;;8.57;2.03;;;8.70;99.90;;;;;;5092951;28;20222;-69
2023/01/08 07:29:57;;;;;;;9.50;2.50;;;8.70;99.90;;;;;;5093024;28;20176;-70
2023/01/08 07:32:23;;;;;;;15.07;3.00;;;8.70;99.90;;;;;;5093135;28;20574;-70
2023/01/08 07:34:48;;;;;;;7.13;2.23;;;8.70;99.90;;;;;;5096982;28;20191;-69
2023/01/08 07:37:14;;;;;;;9.53;2.53;;;8.80;99.90;;;;;;5096728;28;20176;-70
2023/01/08 07:39:39;;;;;;;9.00;2.57;;;8.80;99.90;;;;;;5096458;28;20176;-69
2023/01/08 07:42:05;;;;;;;7.77;2.40;;;8.80;99.90;;;;;;5096929;28;20620;-70
2023/01/08 07:44:31;;;;;;;6.57;2.53;;;8.90;99.90;;;;;;5096267;28;20276;-70
2023/01/08 07:46:56;;;;;;;7.37;2.37;;;8.80;99.90;;;;;;5096710;28;20192;-69
2023/01/08 07:49:22;;;;;;;8.97;2.47;;;8.90;99.90;;;;;;5096204;28;20237;-70
2023/01/08 07:51:51;;;;;;;8.30;2.27;;;8.90;99.90;;;;;;5094973;28;20706;-70
2023/01/08 07:54:16;;;;;;;8.60;2.40;;;8.90;99.90;;;;;;5096227;28;20213;-70
2023/01/08 07:56:43;;;;;;;7.50;2.47;;;8.90;99.90;;;;;;5096099;28;20708;-70
2023/01/08 07:59:08;;;;;;;3.60;2.10;;;8.80;99.90;;;;;;5096580;28;20175;-69
2023/01/08 08:01:34;;;;;;;11.43;2.50;;;8.90;99.90;;;;;;5096374;28;20522;-71
2023/01/08 08:04:00;;;;;;;5.30;2.10;;;8.90;99.90;;;;;;5096107;28;20172;-71
2023/01/08 08:06:25;;;;;;;9.53;2.70;;;8.90;99.90;;;;;;5096437;28;20168;-69
2023/01/08 08:08:51;;;;;;;6.20;2.30;;;8.90;99.90;;;;;;5095643;28;20700;-70
2023/01/08 08:11:16;;;;;;;6.57;2.73;;;9.00;99.90;;;;;;5095891;28;20270;-71
2023/01/08 08:13:43;;;;;;;12.40;2.40;;;9.00;99.90;;;;;;5095552;28;20235;-70
2023/01/08 08:16:10;;;;;;;5.97;2.30;;;9.10;99.90;;;;;;5096033;28;20221;-69
2023/01/08 08:18:36;;;;;;;9.83;2.30;;;9.10;99.90;;;;;;5095811;28;20200;-70
2023/01/08 08:21:02;;;;;;;9.90;2.50;;;9.20;99.90;;;;;;5096226;28;20631;-70
2023/01/08 08:23:28;;;;;;;6.83;2.20;;;9.20;99.90;;;;;;5095191;28;20240;-69
2023/01/08 08:25:54;;;;;;;6.63;2.27;;;9.20;99.90;;;;;;5095756;28;20180;-68
2023/01/08 08:28:19;;;;;;;3.90;2.17;;;9.20;99.90;;;;;;5095778;28;20183;-69
2023/01/08 08:30:45;;;;;;;8.00;2.20;;;9.30;99.90;;;;;;5095905;28;20180;-70
2023/01/08 08:33:11;;;;;;;3.80;2.17;;;9.30;99.90;;;;;;5095570;28;20203;-70
2023/01/08 08:35:38;;;;;;;5.27;2.10;;;9.30;99.90;;;;;;5095437;28;20178;-70
2023/01/08 08:38:04;;;;;;;3.53;1.53;;;9.30;99.90;;;;;;5095313;28;20175;-70
2023/01/08 08:40:30;;;;;;;4.37;2.47;;;9.30;99.90;;;;;;5095581;28;20168;-69
2023/01/08 08:43:01;;;;;;;4.10;1.80;;;9.30;99.90;;;;;;5095710;28;20223;-70
2023/01/08 08:45:27;;;;;;;5.03;2.40;;;9.40;99.90;;;;;;5093755;28;20176;-70
2023/01/08 08:47:54;;;;;;;4.10;2.00;;;9.40;99.90;;;;;;5095515;28;20227;-70
2023/01/08 08:50:20;;;;;;;2.47;1.63;;;9.40;99.90;;;;;;5095176;28;20588;-70
2023/01/08 08:52:47;;;;;;;6.03;2.20;;;9.40;99.90;;;;;;5095346;28;20207;-71
2023/01/08 08:55:16;;;;;;;4.40;2.00;;;9.40;99.90;;;;;;5094930;28;20190;-70
2023/01/08 08:57:43;;;;;;;6.17;1.90;;;9.50;99.90;;;;;;5093394;28;20175;-70
2023/01/08 09:00:10;;;;;;;8.07;1.93;;;9.40;99.90;;;;;;5094540;28;20175;-70
2023/01/08 09:02:35;;;;;;;4.90;1.60;;;9.50;99.90;;;;;;5095040;28;20182;-69
2023/01/08 09:05:01;;;;;;;3.80;1.70;;;9.40;99.90;;;;;;5093177;28;20167;-70
2023/01/08 09:07:26;;;;;;;2.47;1.60;;;9.40;99.90;;;;;;5094593;28;20176;-69
2023/01/08 09:09:52;;;;;;;4.50;1.73;;;9.30;99.90;;;;;;5094150;28;20164;-70
2023/01/08 09:12:18;;;;;;;1.70;1.37;;;9.30;99.90;;;;;;5094980;28;20207;-71
2023/01/08 09:14:43;;;;;;;2.33;1.27;;;9.40;99.90;;;;;;5095064;28;20253;-70
2023/01/08 09:17:09;;;;;;;3.43;1.50;;;9.50;99.90;;;;;;5094588;28;20192;-69
2023/01/08 09:19:34;;;;;;;3.90;1.20;;;9.60;99.90;;;;;;5094344;28;20179;-70
2023/01/08 09:22:01;;;;;;;1.23;0.80;;;9.70;99.90;;;;;;5094600;28;20179;-68
2023/01/08 09:24:27;;;;;;;1.80;1.00;;;9.70;99.90;;;;;;5094081;28;20214;-69
2023/01/08 09:26:53;;;;;;;3.73;1.20;;;9.70;99.90;;;;;;5094445;28;20211;-71
2023/01/08 09:29:19;;;;;;;1.43;1.10;;;9.70;99.90;;;;;;5094942;28;20180;-69
2023/01/08 09:31:45;;;;;;;1.07;0.73;;;10.00;99.90;;;;;;5094825;28;20244;-69
2023/01/08 09:34:11;;;;;;;1.70;0.83;;;10.80;99.90;;;;;;5094020;28;20274;-70
2023/01/08 09:36:37;;;;;;;1.63;0.80;;;12.00;99.90;;;;;;5094608;28;20168;-69
2023/01/08 09:39:03;;;;;;;1.80;0.70;;;12.90;99.90;;;;;;5094155;28;20637;-69
2023/01/08 09:41:33;;;;;;;3.73;1.13;;;13.80;99.90;;;;;;5094588;28;20168;-71
2023/01/08 09:44:02;;;;;;;3.60;1.00;;;14.60;99.90;;;;;;5093938;28;20360;-70
2023/01/08 09:46:28;;;;;;;1.10;0.70;;;14.80;99.90;;;;;;5094186;28;20267;-70
2023/01/08 09:48:58;;;;;;;1.63;0.97;;;15.10;99.90;;;;;;5093600;28;20203;-70
2023/01/08 09:51:32;;;;;;;1.93;1.10;;;15.20;99.90;;;;;;5094008;28;20180;-71
2023/01/08 09:53:58;;;;;;;0.73;0.73;;;15.10;99.90;;;;;;5093298;28;20187;-72
2023/01/08 09:56:24;;;;;;;1.93;1.17;;;15.10;99.90;;;;;;5093631;28;20168;-71
2023/01/08 09:58:53;;;;;;;1.20;1.10;;;15.10;99.90;;;;;;5093462;28;20191;-70
2023/01/08 10:01:24;;;;;;;5.10;1.00;;;15.00;99.90;;;;;;5094072;28;20168;-70
2023/01/08 10:04:04;;;;;;;1.43;0.80;;;15.00;99.90;;;;;;5093267;28;20232;-70
2023/01/08 10:06:30;;;;;;;1.27;0.90;;;14.00;99.90;;;;;;5093957;28;20176;-70
2023/01/08 10:08:56;;;;;;;0.90;0.70;;;13.70;99.90;;;;;;5092086;28;20255;-70
2023/01/08 10:11:25;;;;;;;2.73;1.17;;;13.90;99.90;;;;;;5093547;28;20193;-70
2023/01/08 10:13:56;;;;;;;3.20;1.10;;;13.90;99.90;;;;;;5093682;28;20191;-70
2023/01/08 10:16:34;;;;;;;2.33;1.10;;;14.10;99.90;;;;;;5092459;28;20195;-71
2023/01/08 10:19:02;;;;;;;1.20;1.10;;;14.10;99.90;;;;;;5092994;28;20172;-70
2023/01/08 10:21:31;;;;;;;6.47;1.10;;;13.90;99.90;;;;;;5093333;28;20172;-69
2023/01/08 10:23:57;;;;;;;2.30;1.30;;;14.10;99.90;;;;;;5093647;28;20164;-71
2023/01/08 10:26:35;;;;;;;2.60;0.90;;;14.30;99.90;;;;;;5093778;28;20175;-71
2023/01/08 10:29:15;;;;;;;2.63;1.10;;;14.40;99.90;;;;;;5093105;28;20180;-70
2023/01/08 10:31:51;;;;;;;3.27;0.90;;;14.80;99.90;;;;;;5093624;28;20184;-72
2023/01/08 10:34:40;;;;;;;4.30;1.20;;;15.10;99.90;;;;;;5093247;28;20224;-71
2023/01/08 10:37:26;;;;;;;2.45;1.20;;;15.10;99.90;;;;;;5093221;28;20172;-70
2023/01/08 10:39:55;;;;;;;3.22;1.20;;;15.00;99.90;;;;;;5092919;28;20256;-70
2023/01/08 10:42:23;;;;;;;3.40;1.63;;;15.00;99.90;;;;;;5093133;28;20174;-70
2023/01/08 10:45:01;;;;;;;3.10;1.23;;;14.90;99.90;;;;;;5092838;28;20168;-70
2023/01/08 10:47:30;;;;;;;1.87;1.30;;;14.50;99.90;;;;;;5092830;28;20175;-69
2023/01/08 10:49:57;;;;;;;2.83;1.30;;;14.10;99.90;;;;;;5092665;28;20179;-69
2023/01/08 10:52:24;;;;;;;3.53;1.50;;;13.80;99.90;;;;;;5092665;28;20207;-69
2023/01/08 10:54:50;;;;;;;2.77;1.40;;;13.00;99.90;;;;;;5091181;28;20521;-70
2023/01/08 10:57:28;;;;;;;6.03;1.43;;;12.60;99.90;;;;;;5092449;28;20179;-70
2023/01/08 10:59:54;;;;;;;15.97;11.20;;;12.70;99.90;;;;;;5092445;28;20255;-70
2023/01/08 11:02:33;;;;;;;12.40;9.77;;;12.90;99.90;;;;;;5092313;28;20502;-69
2023/01/08 11:05:00;;;;;;;18.33;13.17;;;13.20;99.90;;;;;;5092714;28;20168;-69
2023/01/08 11:07:27;;;;;;;13.40;12.00;;;13.40;99.90;;;;;;5092035;28;20665;-70
2023/01/08 11:09:54;;;;;;;8.33;6.03;;;13.60;99.90;;;;;;5092489;28;20167;-70
2023/01/08 11:12:41;;;;;;;4.57;3.63;;;13.70;99.90;;;;;;5092623;28;20222;-70
2023/01/08 11:15:27;;;;;;;14.53;13.13;;;13.60;99.90;;;;;;5092854;28;20234;-69
2023/01/08 11:17:52;;;;;;;6.47;2.73;;;13.20;99.90;;;;;;5092545;28;20164;-68
2023/01/08 11:20:22;;;;;;;36.47;33.17;;;12.90;99.90;;;;;;5092468;28;20176;-70
2023/01/08 11:22:49;;;;;;;7.03;6.23;;;13.10;99.90;;;;;;5092962;28;20246;-69
2023/01/08 11:25:25;;;;;;;7.47;2.40;;;13.20;99.90;;;;;;5092756;28;20193;-70
2023/01/08 11:27:51;;;;;;;3.70;1.70;;;13.30;99.90;;;;;;5092872;28;20166;-69
2023/01/08 11:30:22;;;;;;;7.33;6.23;;;13.40;99.90;;;;;;5092111;28;20178;-70
2023/01/08 11:33:12;;;;;;;6.30;3.07;;;13.40;99.90;;;;;;5092228;28;20206;-70
2023/01/08 11:35:39;;;;;;;5.03;1.90;;;13.30;99.90;;;;;;5092737;28;20176;-69
2023/01/08 11:38:07;;;;;;;6.97;2.47;;;13.50;99.90;;;;;;5091518;28;20172;-70
2023/01/08 11:41:02;;;;;;;3.63;1.83;;;13.60;99.90;;;;;;5092504;28;20627;-70
2023/01/08 11:43:55;;;;;;;3.83;2.00;;;13.60;99.90;;;;;;5092063;28;20277;-70
2023/01/08 11:46:43;;;;;;;9.90;6.43;;;13.30;99.90;;;;;;5092126;28;20168;-69
2023/01/08 11:49:45;;;;;;;34.70;27.40;;;13.00;99.90;;;;;;5092498;28;20321;-69
2023/01/08 11:52:22;;;;;;;7.10;1.80;;;13.20;99.90;;;;;;5092651;28;20245;-69
2023/01/08 11:55:09;;;;;;;10.23;6.93;;;13.20;99.90;;;;;;5092397;28;20168;-69
2023/01/08 11:57:42;;;;;;;20.13;14.47;;;13.20;99.90;;;;;;5092219;28;20191;-69
2023/01/08 12:00:41;;;;;;;5.20;2.00;;;13.30;99.90;;;;;;5091664;28;20168;-68
2023/01/08 12:03:36;;;;;;;5.73;3.70;;;13.10;99.90;;;;;;5092413;28;20255;-69
2023/01/08 12:06:41;;;;;;;3.90;2.53;;;13.40;99.90;;;;;;5090179;28;20184;-70
2023/01/08 12:09:18;;;;;;;5.53;2.30;;;13.90;99.90;;;;;;5009923;28;20182;-69
2023/01/08 12:11:55;;;;;;;5.90;4.13;;;14.00;99.90;;;;;;5009559;28;20285;-70
2023/01/08 12:14:43;;;;;;;7.03;2.30;;;13.40;99.90;;;;;;5009918;28;20190;-69
2023/01/08 12:17:29;;;;;;;5.80;3.80;;;13.00;99.90;;;;;;5010132;28;20175;-70
2023/01/08 12:20:16;;;;;;;48.93;44.63;;;12.70;99.90;;;;;;5010299;28;20189;-70
2023/01/08 12:23:05;;;;;;;23.87;21.17;;;12.40;99.90;;;;;;5013756;28;20174;-69
2023/01/08 12:25:54;;;;;;;16.27;14.80;;;12.30;99.90;;;;;;5013381;28;20187;-70
2023/01/08 12:28:43;;;;;;;5.43;2.60;;;12.20;99.90;;;;;;5013339;28;20221;-70
2023/01/08 12:31:15;;;;;;;9.50;7.23;;;11.90;99.90;;;;;;5013163;28;20230;-70
2023/01/08 12:33:50;;;;;;;6.30;2.00;;;11.90;99.90;;;;;;5012885;28;20267;-70
2023/01/08 12:36:29;;;;;;;5.20;3.63;;;11.90;99.90;;;;;;5013563;28;20557;-69
2023/01/08 12:39:01;;;;;;;7.33;2.00;;;11.90;99.90;;;;;;5013309;28;20182;-68
2023/01/08 12:41:33;;;;;;;4.27;1.53;;;11.80;99.90;;;;;;5013358;28;20261;-69
2023/01/08 12:44:03;;;;;;;4.07;1.77;;;11.70;99.90;;;;;;5012734;28;20229;-70
2023/01/08 12:46:34;;;;;;;5.03;1.50;;;11.60;99.90;;;;;;5092801;28;20187;-69
2023/01/08 12:49:03;;;;;;;2.93;1.63;;;11.70;99.90;;;;;;5095547;28;20180;-70
2023/01/08 12:51:37;;;;;;;6.43;1.60;;;11.70;99.90;;;;;;5095010;28;20254;-70
2023/01/08 12:54:09;;;;;;;36.17;32.93;;;11.60;99.90;;;;;;5095260;28;20206;-70
2023/01/08 12:56:53;;;;;;;6.77;1.90;;;11.60;99.90;;;;;;5095308;28;20167;-70
2023/01/08 12:59:43;;;;;;;6.33;1.93;;;11.60;99.90;;;;;;5095168;28;20203;-68
2023/01/08 13:02:35;;;;;;;5.43;1.90;;;11.60;99.90;;;;;;5095194;28;20178;-70
2023/01/08 13:05:11;;;;;;;6.73;2.63;;;11.50;99.90;;;;;;5095003;28;20206;-70
2023/01/08 13:07:52;;;;;;;8.60;7.20;;;11.30;99.90;;;;;;5094592;28;20600;-68